Jean Anne — WDC3786 — position and weather

sailwx.info

Track history (hours):
 
Tides and Currents Weather Stations Pressure Air Temp Water Temp Dewpoint Dewpoint Depression Visibility Wind Speed Wind Dir Waves Ship Positions

Jean Anne

Owner: PASHA HAWAII TRANSPORT LINES LLC, National City, CA. More information available from US FCC via Universal Licensing System and Coast Guard Vessel Documentation Center.

Last reported at 2016-Aug-26 08:09 UTC. Time now 2016-Aug-30 20:55 UTC.
Position N 29°59' W 125°35'.

Type: Cargo ship. MMSI: 367003380.

Date/timePositionNaut miles runAvg speedWind from/ knotsBaromVisibWave heightAir tempDewpointWater temp
2016-Aug-26 08:09N 29°59' W 125°35'9419.5
2016-Aug-26 03:19N 30°14' W 123°48'1519.5
2016-Aug-26 02:32N 30°16' W 123°30'4619.4
2016-Aug-26 00:11N 30°22' W 122°38'3219.4
2016-Aug-25 22:31N 30°27' W 122°01'3819.3
2016-Aug-25 20:33N 30°33' W 121°18'2119.5
2016-Aug-25 19:30N 30°38' W 120°54'1819.4
2016-Aug-25 18:33N 30°42' W 120°33'1919.5
2016-Aug-25 17:33N 30°46' W 120°11'1919.2
2016-Aug-25 16:33N 30°50' W 119°49'1919.1
2016-Aug-25 15:33N 30°53' W 119°28'1919.2
2016-Aug-25 14:33N 30°57' W 119°06'1919.3
2016-Aug-25 13:33N 31°01' W 118°44'1818.2
2016-Aug-25 12:33N 31°13' W 118°27'2019.7
2016-Aug-25 11:33N 31°28' W 118°13'2019.4
2016-Aug-25 10:33N 31°44' W 117°60'2019.4
2016-Aug-25 09:32N 32°00' W 117°46'1818.3
2016-Aug-25 08:33N 32°15' W 117°34'1515.5
2016-Aug-25 07:34N 32°27' W 117°23'1515.1
2016-Aug-25 06:33N 32°40' W 117°14'5 2.7
2016-Aug-25 04:33N 32°39' W 117°07'0 0.0
2016-Aug-25 03:33N 32°39' W 117°07'0 0.0
2016-Aug-25 02:27N 32°39' W 117°07'0 0.0
2016-Aug-25 01:30N 32°39' W 117°07'0 0.0
2016-Aug-25 00:33N 32°39' W 117°07'0 0.0
2016-Aug-24 23:33N 32°39' W 117°07'0 0.0
2016-Aug-24 22:33N 32°39' W 117°07'0 0.0
2016-Aug-24 21:30N 32°39' W 117°07'0 0.0
2016-Aug-24 20:33N 32°39' W 117°07'0 0.0
2016-Aug-24 19:30N 32°39' W 117°07'0 0.0
2016-Aug-24 18:33N 32°39' W 117°07'0 0.0
2016-Aug-24 17:33N 32°39' W 117°07'0 0.0
2016-Aug-24 16:33N 32°39' W 117°07'0 0.0
2016-Aug-24 15:32N 32°39' W 117°07'0 0.0
2016-Aug-24 14:29N 32°39' W 117°07'0 0.0
2016-Aug-24 13:29N 32°39' W 117°07'0 0.0
2016-Aug-24 12:32N 32°39' W 117°07'0 0.0
2016-Aug-24 11:32N 32°39' W 117°07'0 0.0
2016-Aug-24 10:32N 32°39' W 117°07'0 0.0
2016-Aug-24 09:32N 32°39' W 117°07'0 0.0
2016-Aug-24 08:32N 32°39' W 117°07'0 0.0
2016-Aug-24 07:32N 32°39' W 117°07'0 0.0
2016-Aug-24 06:32N 32°39' W 117°07'6 3.1
2016-Aug-24 04:33N 32°42' W 117°14'9 9.2
2016-Aug-24 03:33N 32°35' W 117°21'1615.9
2016-Aug-24 02:34N 32°29' W 117°38'1616.5
2016-Aug-24 01:33N 32°26' W 117°57'1716.5
2016-Aug-24 00:33N 32°23' W 118°16'1818.3
2016-Aug-23 23:33N 32°19' W 118°38'2120.8
2016-Aug-23 22:33N 32°15' W 119°02'2119.0
2016-Aug-23 21:28N 32°26' W 119°22'1920.7
2016-Aug-23 20:33N 32°40' W 119°38'2220.6
2016-Aug-23 19:29N 32°55' W 119°56'3920.3
2016-Aug-23 17:33N 33°24' W 120°28'2120.4
2016-Aug-23 16:33N 33°39' W 120°45'2020.2
2016-Aug-23 15:33N 33°55' W 120°59'2120.2
2016-Aug-23 14:30N 34°14' W 121°11'2020.2
2016-Aug-23 13:30N 34°32' W 121°22'5920.2
2016-Aug-23 10:33N 35°25' W 121°55'2020.4
2016-Aug-23 09:33N 35°43' W 122°06'2020.1
2016-Aug-23 08:33N 36°01' W 122°18'2019.8
2016-Aug-23 07:33N 36°19' W 122°28'2020.0
2016-Aug-23 06:33N 36°38' W 122°37'2019.8
2016-Aug-23 05:33N 36°56' W 122°44'2020.0
2016-Aug-23 04:33N 37°16' W 122°44'2020.3
2016-Aug-23 03:33N 37°37' W 122°44'1413.8
2016-Aug-23 02:34N 37°48' W 122°33'9 8.8
2016-Aug-23 01:33N 37°45' W 122°22'0 0.1
2016-Aug-23 00:31N 37°45' W 122°23'0 0.0
2016-Aug-22 23:31N 37°45' W 122°23'0 0.0
2016-Aug-22 22:34N 37°45' W 122°23'0 0.0
2016-Aug-22 21:33N 37°45' W 122°23'0 0.0
2016-Aug-22 20:33N 37°45' W 122°23'0 0.0
2016-Aug-22 19:33N 37°45' W 122°23'0 0.0
2016-Aug-22 18:33N 37°45' W 122°23'0 0.0
2016-Aug-22 17:33N 37°45' W 122°23'0 0.0
2016-Aug-22 16:33N 37°45' W 122°23'0 0.0
2016-Aug-22 15:33N 37°45' W 122°23'1 1.4
2016-Aug-22 14:34N 37°46' W 122°22'9 8.9
2016-Aug-22 13:34N 37°47' W 122°34'1111.1
2016-Aug-22 12:33N 37°41' W 122°45'1717.1
2016-Aug-22 11:33N 37°32' W 123°03'1918.7
2016-Aug-22 10:33N 37°26' W 123°26'2019.8
2016-Aug-22 09:33N 37°19' W 123°49'2019.9
2016-Aug-22 08:33N 37°12' W 124°13'2320.1
2016-Aug-22 07:26N 37°05' W 124°39'2820.2
2016-Aug-22 06:03N 36°55' W 125°12'3319.8
2016-Aug-22 04:24N 36°44' W 125°51'4219.7
2016-Aug-22 02:17N 36°31' W 126°40'1619.1
2016-Aug-22 01:27N 36°24' W 126°58'1617.4
2016-Aug-22 00:33N 36°18' W 127°16'9818.2
2016-Aug-21 19:08N 35°38' W 129°07'25119.3
2016-Aug-21 06:07N 33°51' W 133°43'  
Track history (hours):
 
Tides and Currents Weather Stations Pressure Air Temp Water Temp Dewpoint Dewpoint Depression Visibility Wind Speed Wind Dir Waves Ship Positions

Jean Anne

Owner: PASHA HAWAII TRANSPORT LINES LLC, National City, CA. More information available from US FCC via Universal Licensing System and Coast Guard Vessel Documentation Center.

Last reported at 2016-Aug-26 08:09 UTC. Time now 2016-Aug-30 20:55 UTC.
Position N 29°59' W 125°35'.

Type: Cargo ship. MMSI: 367003380.

Date/timePositionNaut miles runAvg speedWind from/ knotsBaromVisibWave heightAir tempDewpointWater temp
2016-Aug-26 08:09N 29°59' W 125°35'9419.5
2016-Aug-26 03:19N 30°14' W 123°48'1519.5
2016-Aug-26 02:32N 30°16' W 123°30'4619.4
2016-Aug-26 00:11N 30°22' W 122°38'3219.4
2016-Aug-25 22:31N 30°27' W 122°01'3819.3
2016-Aug-25 20:33N 30°33' W 121°18'2119.5
2016-Aug-25 19:30N 30°38' W 120°54'1819.4
2016-Aug-25 18:33N 30°42' W 120°33'1919.5
2016-Aug-25 17:33N 30°46' W 120°11'1919.2
2016-Aug-25 16:33N 30°50' W 119°49'1919.1
2016-Aug-25 15:33N 30°53' W 119°28'1919.2
2016-Aug-25 14:33N 30°57' W 119°06'1919.3
2016-Aug-25 13:33N 31°01' W 118°44'1818.2
2016-Aug-25 12:33N 31°13' W 118°27'2019.7
2016-Aug-25 11:33N 31°28' W 118°13'2019.4
2016-Aug-25 10:33N 31°44' W 117°60'2019.4
2016-Aug-25 09:32N 32°00' W 117°46'1818.3
2016-Aug-25 08:33N 32°15' W 117°34'1515.5
2016-Aug-25 07:34N 32°27' W 117°23'1515.1
2016-Aug-25 06:33N 32°40' W 117°14'5 2.7
2016-Aug-25 04:33N 32°39' W 117°07'0 0.0
2016-Aug-25 03:33N 32°39' W 117°07'0 0.0
2016-Aug-25 02:27N 32°39' W 117°07'0 0.0
2016-Aug-25 01:30N 32°39' W 117°07'0 0.0
2016-Aug-25 00:33N 32°39' W 117°07'0 0.0
2016-Aug-24 23:33N 32°39' W 117°07'0 0.0
2016-Aug-24 22:33N 32°39' W 117°07'0 0.0
2016-Aug-24 21:30N 32°39' W 117°07'0 0.0
2016-Aug-24 20:33N 32°39' W 117°07'0 0.0
2016-Aug-24 19:30N 32°39' W 117°07'0 0.0
2016-Aug-24 18:33N 32°39' W 117°07'0 0.0
2016-Aug-24 17:33N 32°39' W 117°07'0 0.0
2016-Aug-24 16:33N 32°39' W 117°07'0 0.0
2016-Aug-24 15:32N 32°39' W 117°07'0 0.0
2016-Aug-24 14:29N 32°39' W 117°07'0 0.0
2016-Aug-24 13:29N 32°39' W 117°07'0 0.0
2016-Aug-24 12:32N 32°39' W 117°07'0 0.0
2016-Aug-24 11:32N 32°39' W 117°07'0 0.0
2016-Aug-24 10:32N 32°39' W 117°07'0 0.0
2016-Aug-24 09:32N 32°39' W 117°07'0 0.0
2016-Aug-24 08:32N 32°39' W 117°07'0 0.0
2016-Aug-24 07:32N 32°39' W 117°07'0 0.0
2016-Aug-24 06:32N 32°39' W 117°07'6 3.1
2016-Aug-24 04:33N 32°42' W 117°14'9 9.2
2016-Aug-24 03:33N 32°35' W 117°21'1615.9
2016-Aug-24 02:34N 32°29' W 117°38'1616.5
2016-Aug-24 01:33N 32°26' W 117°57'1716.5
2016-Aug-24 00:33N 32°23' W 118°16'1818.3
2016-Aug-23 23:33N 32°19' W 118°38'2120.8
2016-Aug-23 22:33N 32°15' W 119°02'2119.0
2016-Aug-23 21:28N 32°26' W 119°22'1920.7
2016-Aug-23 20:33N 32°40' W 119°38'2220.6
2016-Aug-23 19:29N 32°55' W 119°56'3920.3
2016-Aug-23 17:33N 33°24' W 120°28'2120.4
2016-Aug-23 16:33N 33°39' W 120°45'2020.2
2016-Aug-23 15:33N 33°55' W 120°59'2120.2
2016-Aug-23 14:30N 34°14' W 121°11'2020.2
2016-Aug-23 13:30N 34°32' W 121°22'5920.2
2016-Aug-23 10:33N 35°25' W 121°55'2020.4
2016-Aug-23 09:33N 35°43' W 122°06'2020.1
2016-Aug-23 08:33N 36°01' W 122°18'2019.8
2016-Aug-23 07:33N 36°19' W 122°28'2020.0
2016-Aug-23 06:33N 36°38' W 122°37'2019.8
2016-Aug-23 05:33N 36°56' W 122°44'2020.0
2016-Aug-23 04:33N 37°16' W 122°44'2020.3
2016-Aug-23 03:33N 37°37' W 122°44'1413.8
2016-Aug-23 02:34N 37°48' W 122°33'9 8.8
2016-Aug-23 01:33N 37°45' W 122°22'0 0.1
2016-Aug-23 00:31N 37°45' W 122°23'0 0.0
2016-Aug-22 23:31N 37°45' W 122°23'0 0.0
2016-Aug-22 22:34N 37°45' W 122°23'0 0.0
2016-Aug-22 21:33N 37°45' W 122°23'0 0.0
2016-Aug-22 20:33N 37°45' W 122°23'0 0.0
2016-Aug-22 19:33N 37°45' W 122°23'0 0.0
2016-Aug-22 18:33N 37°45' W 122°23'0 0.0
2016-Aug-22 17:33N 37°45' W 122°23'0 0.0
2016-Aug-22 16:33N 37°45' W 122°23'0 0.0
2016-Aug-22 15:33N 37°45' W 122°23'1 1.4
2016-Aug-22 14:34N 37°46' W 122°22'9 8.9
2016-Aug-22 13:34N 37°47' W 122°34'1111.1
2016-Aug-22 12:33N 37°41' W 122°45'1717.1
2016-Aug-22 11:33N 37°32' W 123°03'1918.7
2016-Aug-22 10:33N 37°26' W 123°26'2019.8
2016-Aug-22 09:33N 37°19' W 123°49'2019.9
2016-Aug-22 08:33N 37°12' W 124°13'2320.1
2016-Aug-22 07:26N 37°05' W 124°39'2820.2
2016-Aug-22 06:03N 36°55' W 125°12'3319.8
2016-Aug-22 04:24N 36°44' W 125°51'4219.7
2016-Aug-22 02:17N 36°31' W 126°40'1619.1
2016-Aug-22 01:27N 36°24' W 126°58'1617.4
2016-Aug-22 00:33N 36°18' W 127°16'9818.2
2016-Aug-21 19:08N 35°38' W 129°07'25119.3
2016-Aug-21 06:07N 33°51' W 133°43'  

Dump ship's entire track history